sensor_id;sensor_type;location;lat;lon;timestamp;pressure;altitude;pressure_sealevel;temperature;humidity
47761;BME280;33524;55.434;38.520;2023-05-20T00:01:57;101257.00;;;5.85;81.57
47761;BME280;33524;55.434;38.520;2023-05-20T00:04:26;101254.19;;;5.90;81.42
47761;BME280;33524;55.434;38.520;2023-05-20T00:06:54;101258.84;;;5.81;81.59
47761;BME280;33524;55.434;38.520;2023-05-20T00:09:22;101260.50;;;5.84;81.48
47761;BME280;33524;55.434;38.520;2023-05-20T00:11:50;101240.22;;;5.69;81.26
47761;BME280;33524;55.434;38.520;2023-05-20T00:14:18;101256.47;;;5.99;79.83
47761;BME280;33524;55.434;38.520;2023-05-20T00:16:46;101258.53;;;5.67;82.06
47761;BME280;33524;55.434;38.520;2023-05-20T00:19:14;101257.94;;;5.60;83.02
47761;BME280;33524;55.434;38.520;2023-05-20T00:21:43;101253.69;;;5.80;81.39
47761;BME280;33524;55.434;38.520;2023-05-20T00:24:11;101255.59;;;5.53;83.41
47761;BME280;33524;55.434;38.520;2023-05-20T00:26:39;101254.25;;;5.42;84.28
47761;BME280;33524;55.434;38.520;2023-05-20T00:29:07;101254.41;;;5.61;82.85
47761;BME280;33524;55.434;38.520;2023-05-20T00:31:35;101253.87;;;5.52;83.52
47761;BME280;33524;55.434;38.520;2023-05-20T00:34:05;101253.87;;;5.52;83.59
47761;BME280;33524;55.434;38.520;2023-05-20T00:36:34;101249.06;;;5.41;84.34
47761;BME280;33524;55.434;38.520;2023-05-20T00:39:02;101253.78;;;5.31;85.08
47761;BME280;33524;55.434;38.520;2023-05-20T00:41:31;101253.16;;;5.24;85.24
47761;BME280;33524;55.434;38.520;2023-05-20T00:43:59;101245.84;;;5.34;84.73
47761;BME280;33524;55.434;38.520;2023-05-20T00:46:27;101253.63;;;5.36;84.54
47761;BME280;33524;55.434;38.520;2023-05-20T00:48:56;101253.78;;;5.31;84.51
47761;BME280;33524;55.434;38.520;2023-05-20T00:51:25;101246.69;;;5.35;84.33
47761;BME280;33524;55.434;38.520;2023-05-20T00:53:54;101251.41;;;5.49;83.21
47761;BME280;33524;55.434;38.520;2023-05-20T00:56:23;101252.94;;;5.54;82.31
47761;BME280;33524;55.434;38.520;2023-05-20T00:58:51;101245.03;;;5.56;81.86
47761;BME280;33524;55.434;38.520;2023-05-20T01:01:20;101254.78;;;5.74;81.31
47761;BME280;33524;55.434;38.520;2023-05-20T01:03:50;101245.84;;;5.80;80.28
47761;BME280;33524;55.434;38.520;2023-05-20T01:06:18;101238.16;;;5.77;80.78
47761;BME280;33524;55.434;38.520;2023-05-20T01:08:46;101245.19;;;5.75;81.19
47761;BME280;33524;55.434;38.520;2023-05-20T01:11:21;101250.87;;;5.62;83.11
47761;BME280;33524;55.434;38.520;2023-05-20T01:13:55;101239.09;;;5.52;84.11
47761;BME280;33524;55.434;38.520;2023-05-20T01:16:26;101247.63;;;5.79;83.04
47761;BME280;33524;55.434;38.520;2023-05-20T01:18:57;101245.56;;;5.87;83.51
47761;BME280;33524;55.434;38.520;2023-05-20T01:21:29;101256.00;;;5.87;83.83
47761;BME280;33524;55.434;38.520;2023-05-20T01:23:57;101243.19;;;5.81;84.20
47761;BME280;33524;55.434;38.520;2023-05-20T01:26:26;101246.16;;;5.96;83.83
47761;BME280;33524;55.434;38.520;2023-05-20T01:28:54;101255.19;;;6.09;83.50
47761;BME280;33524;55.434;38.520;2023-05-20T01:31:30;101254.59;;;6.24;83.11
47761;BME280;33524;55.434;38.520;2023-05-20T01:34:00;101254.19;;;6.34;82.40
47761;BME280;33524;55.434;38.520;2023-05-20T01:36:30;101251.38;;;6.38;82.27
47761;BME280;33524;55.434;38.520;2023-05-20T01:39:00;101254.28;;;6.53;81.97
47761;BME280;33524;55.434;38.520;2023-05-20T01:41:30;101246.69;;;6.46;81.74
47761;BME280;33524;55.434;38.520;2023-05-20T01:44:01;101243.09;;;6.70;81.15
47761;BME280;33524;55.434;38.520;2023-05-20T01:46:33;101248.78;;;6.79;80.72
47761;BME280;33524;55.434;38.520;2023-05-20T01:49:02;101261.13;;;6.76;81.01
47761;BME280;33524;55.434;38.520;2023-05-20T01:51:30;101246.63;;;6.89;80.50
47761;BME280;33524;55.434;38.520;2023-05-20T01:54:00;101248.00;;;6.98;79.92
47761;BME280;33524;55.434;38.520;2023-05-20T01:56:29;101255.50;;;7.05;79.73
47761;BME280;33524;55.434;38.520;2023-05-20T01:58:58;101251.91;;;7.08;79.58
47761;BME280;33524;55.434;38.520;2023-05-20T02:01:26;101251.69;;;7.13;79.15
47761;BME280;33524;55.434;38.520;2023-05-20T02:03:55;101251.09;;;7.26;78.99
47761;BME280;33524;55.434;38.520;2023-05-20T02:06:23;101244.13;;;7.25;78.94
47761;BME280;33524;55.434;38.520;2023-05-20T02:08:51;101247.84;;;7.40;78.48
47761;BME280;33524;55.434;38.520;2023-05-20T02:11:19;101225.53;;;7.32;78.20
47761;BME280;33524;55.434;38.520;2023-05-20T02:13:49;101237.09;;;7.46;78.05
47761;BME280;33524;55.434;38.520;2023-05-20T02:16:18;101251.53;;;7.55;77.87
47761;BME280;33524;55.434;38.520;2023-05-20T02:18:47;101247.69;;;7.62;77.55
47761;BME280;33524;55.434;38.520;2023-05-20T02:21:16;101243.34;;;7.63;77.50
47761;BME280;33524;55.434;38.520;2023-05-20T02:23:44;101245.16;;;7.80;76.62
47761;BME280;33524;55.434;38.520;2023-05-20T02:26:13;101247.84;;;7.78;76.79
47761;BME280;33524;55.434;38.520;2023-05-20T02:28:41;101245.69;;;7.86;76.74
47761;BME280;33524;55.434;38.520;2023-05-20T02:31:13;101237.88;;;8.04;75.98
47761;BME280;33524;55.434;38.520;2023-05-20T02:33:43;101233.22;;;8.28;75.43
47761;BME280;33524;55.434;38.520;2023-05-20T02:36:11;101218.12;;;8.33;74.33
47761;BME280;33524;55.434;38.520;2023-05-20T02:38:39;101231.00;;;8.73;73.44
47761;BME280;33524;55.434;38.520;2023-05-20T02:41:09;101230.91;;;8.92;72.57
47761;BME280;33524;55.434;38.520;2023-05-20T02:43:38;101231.16;;;9.20;71.54
47761;BME280;33524;55.434;38.520;2023-05-20T02:46:07;101231.41;;;9.16;71.47
47761;BME280;33524;55.434;38.520;2023-05-20T02:48:36;101232.63;;;9.08;71.30
47761;BME280;33524;55.434;38.520;2023-05-20T02:51:04;101227.56;;;9.05;71.26
47761;BME280;33524;55.434;38.520;2023-05-20T02:53:32;101236.87;;;9.11;70.88
47761;BME280;33524;55.434;38.520;2023-05-20T02:56:04;101237.13;;;9.06;72.06
47761;BME280;33524;55.434;38.520;2023-05-20T02:58:32;101232.69;;;8.91;72.64
47761;BME280;33524;55.434;38.520;2023-05-20T03:01:02;101226.13;;;8.82;72.57
47761;BME280;33524;55.434;38.520;2023-05-20T03:03:32;101227.22;;;8.78;72.74
47761;BME280;33524;55.434;38.520;2023-05-20T03:06:00;101234.94;;;8.81;73.11
47761;BME280;33524;55.434;38.520;2023-05-20T03:08:28;101240.09;;;8.83;72.86
47761;BME280;33524;55.434;38.520;2023-05-20T03:10:56;101225.91;;;8.87;72.90
47761;BME280;33524;55.434;38.520;2023-05-20T03:13:26;101237.50;;;8.83;73.21
47761;BME280;33524;55.434;38.520;2023-05-20T03:15:57;101239.78;;;8.89;72.87
47761;BME280;33524;55.434;38.520;2023-05-20T03:18:28;101232.91;;;8.86;73.34
47761;BME280;33524;55.434;38.520;2023-05-20T03:20:57;101225.28;;;8.82;73.47
47761;BME280;33524;55.434;38.520;2023-05-20T03:23:24;101229.75;;;8.97;73.48
47761;BME280;33524;55.434;38.520;2023-05-20T03:25:54;101235.12;;;9.12;72.95
47761;BME280;33524;55.434;38.520;2023-05-20T03:28:22;101232.56;;;9.26;72.35
47761;BME280;33524;55.434;38.520;2023-05-20T03:30:50;101228.09;;;9.28;72.16
47761;BME280;33524;55.434;38.520;2023-05-20T03:33:18;101232.94;;;9.83;68.26
47761;BME280;33524;55.434;38.520;2023-05-20T03:35:47;101232.88;;;9.37;71.50
47761;BME280;33524;55.434;38.520;2023-05-20T03:38:15;101242.59;;;9.35;72.26
47761;BME280;33524;55.434;38.520;2023-05-20T03:40:43;101208.88;;;9.12;72.61
47761;BME280;33524;55.434;38.520;2023-05-20T03:43:12;101231.75;;;9.41;72.38
47761;BME280;33524;55.434;38.520;2023-05-20T03:45:40;101236.94;;;9.43;72.05
47761;BME280;33524;55.434;38.520;2023-05-20T03:48:08;101230.91;;;9.57;71.53
47761;BME280;33524;55.434;38.520;2023-05-20T03:50:37;101229.81;;;9.61;71.63
47761;BME280;33524;55.434;38.520;2023-05-20T03:53:05;101228.38;;;9.71;71.69
47761;BME280;33524;55.434;38.520;2023-05-20T03:55:35;101234.59;;;10.16;68.70
47761;BME280;33524;55.434;38.520;2023-05-20T03:58:05;101234.47;;;10.49;68.06
47761;BME280;33524;55.434;38.520;2023-05-20T04:00:34;101225.91;;;10.00;69.69
47761;BME280;33524;55.434;38.520;2023-05-20T04:03:03;101228.50;;;10.16;70.16
47761;BME280;33524;55.434;38.520;2023-05-20T04:05:33;101231.16;;;10.00;70.22
47761;BME280;33524;55.434;38.520;2023-05-20T04:08:02;101227.31;;;10.52;67.90
47761;BME280;33524;55.434;38.520;2023-05-20T04:10:32;101225.16;;;10.44;68.18
47761;BME280;33524;55.434;38.520;2023-05-20T04:13:00;101227.63;;;10.61;68.17
47761;BME280;33524;55.434;38.520;2023-05-20T04:15:28;101227.88;;;10.42;68.41
47761;BME280;33524;55.434;38.520;2023-05-20T04:17:57;101223.78;;;11.39;65.11
47761;BME280;33524;55.434;38.520;2023-05-20T04:20:28;101226.97;;;10.58;67.92
47761;BME280;33524;55.434;38.520;2023-05-20T04:22:56;101216.56;;;10.85;67.27
47761;BME280;33524;55.434;38.520;2023-05-20T04:25:25;101222.12;;;11.79;63.94
47761;BME280;33524;55.434;38.520;2023-05-20T04:27:54;101217.88;;;10.78;66.16
47761;BME280;33524;55.434;38.520;2023-05-20T04:30:24;101215.81;;;11.11;65.98
47761;BME280;33524;55.434;38.520;2023-05-20T04:32:53;101204.94;;;12.01;63.29
47761;BME280;33524;55.434;38.520;2023-05-20T04:35:21;101213.97;;;11.97;62.19
47761;BME280;33524;55.434;38.520;2023-05-20T04:37:54;101201.31;;;12.29;62.96
47761;BME280;33524;55.434;38.520;2023-05-20T04:40:22;101209.03;;;13.22;59.43
47761;BME280;33524;55.434;38.520;2023-05-20T04:42:51;101217.59;;;11.81;63.31
47761;BME280;33524;55.434;38.520;2023-05-20T04:45:20;101213.84;;;11.29;66.04
47761;BME280;33524;55.434;38.520;2023-05-20T04:47:50;101215.25;;;11.49;65.12
47761;BME280;33524;55.434;38.520;2023-05-20T04:50:20;101214.59;;;11.73;64.16
47761;BME280;33524;55.434;38.520;2023-05-20T04:52:48;101207.56;;;12.41;62.97
47761;BME280;33524;55.434;38.520;2023-05-20T04:55:17;101210.22;;;11.59;64.80
47761;BME280;33524;55.434;38.520;2023-05-20T04:57:47;101213.00;;;12.12;62.63
47761;BME280;33524;55.434;38.520;2023-05-20T05:00:16;101210.00;;;11.77;63.56
47761;BME280;33524;55.434;38.520;2023-05-20T05:02:44;101210.37;;;11.70;63.79
47761;BME280;33524;55.434;38.520;2023-05-20T05:05:13;101201.38;;;12.15;64.42
47761;BME280;33524;55.434;38.520;2023-05-20T05:07:41;101194.97;;;13.71;59.97
47761;BME280;33524;55.434;38.520;2023-05-20T05:10:11;101203.81;;;12.96;58.93
47761;BME280;33524;55.434;38.520;2023-05-20T05:12:39;101192.59;;;12.54;60.64
47761;BME280;33524;55.434;38.520;2023-05-20T05:15:07;101204.66;;;12.84;59.38
47761;BME280;33524;55.434;38.520;2023-05-20T05:17:35;101184.91;;;12.64;60.41
47761;BME280;33524;55.434;38.520;2023-05-20T05:20:04;101188.97;;;15.86;54.35
47761;BME280;33524;55.434;38.520;2023-05-20T05:22:32;101179.03;;;16.00;53.99
47761;BME280;33524;55.434;38.520;2023-05-20T05:25:04;101190.34;;;13.62;56.24
47761;BME280;33524;55.434;38.520;2023-05-20T05:27:33;101183.88;;;14.61;52.99
47761;BME280;33524;55.434;38.520;2023-05-20T05:30:04;101182.06;;;12.80;59.79
47761;BME280;33524;55.434;38.520;2023-05-20T05:32:35;101179.41;;;14.50;59.76
47761;BME280;33524;55.434;38.520;2023-05-20T05:35:03;101186.19;;;14.88;53.01
47761;BME280;33524;55.434;38.520;2023-05-20T05:37:35;101178.25;;;14.30;55.00
47761;BME280;33524;55.434;38.520;2023-05-20T05:40:05;101169.75;;;13.17;59.10
47761;BME280;33524;55.434;38.520;2023-05-20T05:42:33;101180.62;;;13.86;62.13
47761;BME280;33524;55.434;38.520;2023-05-20T05:45:02;101183.44;;;13.96;55.30
47761;BME280;33524;55.434;38.520;2023-05-20T05:47:32;101181.97;;;13.68;58.13
47761;BME280;33524;55.434;38.520;2023-05-20T05:50:00;101183.00;;;13.78;57.15
47761;BME280;33524;55.434;38.520;2023-05-20T05:52:31;101166.75;;;16.83;52.63
47761;BME280;33524;55.434;38.520;2023-05-20T05:55:01;101171.38;;;16.90;50.42
47761;BME280;33524;55.434;38.520;2023-05-20T05:57:31;101165.72;;;16.53;48.80
47761;BME280;33524;55.434;38.520;2023-05-20T06:00:00;101174.12;;;14.61;53.76
47761;BME280;33524;55.434;38.520;2023-05-20T06:02:32;101169.00;;;14.82;56.31
47761;BME280;33524;55.434;38.520;2023-05-20T06:05:03;101168.38;;;17.74;52.36
47761;BME280;33524;55.434;38.520;2023-05-20T06:07:31;101170.91;;;14.91;52.62
47761;BME280;33524;55.434;38.520;2023-05-20T06:09:59;101166.81;;;17.02;52.54
47761;BME280;33524;55.434;38.520;2023-05-20T06:12:29;101163.06;;;17.74;44.59
47761;BME280;33524;55.434;38.520;2023-05-20T06:14:58;101163.09;;;19.81;45.00
47761;BME280;33524;55.434;38.520;2023-05-20T06:17:26;101166.22;;;19.03;43.58
47761;BME280;33524;55.434;38.520;2023-05-20T06:19:54;101158.91;;;20.23;43.56
47761;BME280;33524;55.434;38.520;2023-05-20T06:22:23;101166.13;;;18.19;48.25
47761;BME280;33524;55.434;38.520;2023-05-20T06:24:52;101163.31;;;17.52;47.77
47761;BME280;33524;55.434;38.520;2023-05-20T06:27:21;101165.75;;;19.35;46.42
47761;BME280;33524;55.434;38.520;2023-05-20T06:29:49;101174.84;;;16.18;49.09
47761;BME280;33524;55.434;38.520;2023-05-20T06:32:17;101167.38;;;17.66;53.20
47761;BME280;33524;55.434;38.520;2023-05-20T06:34:46;101185.31;;;15.55;52.25
47761;BME280;33524;55.434;38.520;2023-05-20T06:37:14;101170.91;;;14.91;51.33
47761;BME280;33524;55.434;38.520;2023-05-20T06:39:42;101169.37;;;14.31;53.37
47761;BME280;33524;55.434;38.520;2023-05-20T06:42:11;101186.44;;;14.96;52.34
47761;BME280;33524;55.434;38.520;2023-05-20T06:44:43;101181.38;;;14.82;53.75
47761;BME280;33524;55.434;38.520;2023-05-20T06:47:14;101179.75;;;15.58;51.17
47761;BME280;33524;55.434;38.520;2023-05-20T06:49:45;101184.69;;;14.50;52.99
47761;BME280;33524;55.434;38.520;2023-05-20T06:52:15;101178.44;;;14.16;54.65
47761;BME280;33524;55.434;38.520;2023-05-20T06:54:44;101174.22;;;14.48;54.18
47761;BME280;33524;55.434;38.520;2023-05-20T06:57:12;101176.63;;;14.51;53.75
47761;BME280;33524;55.434;38.520;2023-05-20T06:59:41;101171.91;;;14.44;52.89
47761;BME280;33524;55.434;38.520;2023-05-20T07:02:10;101173.66;;;14.67;53.33
47761;BME280;33524;55.434;38.520;2023-05-20T07:04:38;101177.47;;;14.41;53.35
47761;BME280;33524;55.434;38.520;2023-05-20T07:07:07;101174.44;;;15.58;55.96
47761;BME280;33524;55.434;38.520;2023-05-20T07:09:36;101161.19;;;16.96;51.29
47761;BME280;33524;55.434;38.520;2023-05-20T07:12:04;101154.19;;;16.94;48.80
47761;BME280;33524;55.434;38.520;2023-05-20T07:14:33;101158.19;;;15.63;51.09
47761;BME280;33524;55.434;38.520;2023-05-20T07:17:02;101155.78;;;18.06;51.45
47761;BME280;33524;55.434;38.520;2023-05-20T07:19:31;101156.03;;;16.73;49.04
47761;BME280;33524;55.434;38.520;2023-05-20T07:22:01;101158.75;;;18.69;47.04
47761;BME280;33524;55.434;38.520;2023-05-20T07:24:30;101157.38;;;17.29;45.69
47761;BME280;33524;55.434;38.520;2023-05-20T07:26:58;101154.59;;;17.40;46.08
47761;BME280;33524;55.434;38.520;2023-05-20T07:29:27;101164.25;;;15.42;50.36
47761;BME280;33524;55.434;38.520;2023-05-20T07:31:56;101151.97;;;15.85;50.86
47761;BME280;33524;55.434;38.520;2023-05-20T07:34:24;101156.88;;;15.89;51.14
47761;BME280;33524;55.434;38.520;2023-05-20T07:36:53;101154.00;;;16.34;47.79
47761;BME280;33524;55.434;38.520;2023-05-20T07:39:21;101142.53;;;17.17;51.79
47761;BME280;33524;55.434;38.520;2023-05-20T07:41:50;101141.00;;;16.31;48.45
47761;BME280;33524;55.434;38.520;2023-05-20T07:44:19;101146.25;;;16.22;48.92
47761;BME280;33524;55.434;38.520;2023-05-20T07:46:49;101150.00;;;15.98;48.56
47761;BME280;33524;55.434;38.520;2023-05-20T07:49:19;101144.88;;;16.27;52.81
47761;BME280;33524;55.434;38.520;2023-05-20T07:51:48;101152.78;;;15.85;48.56
47761;BME280;33524;55.434;38.520;2023-05-20T07:54:16;101147.47;;;16.69;48.47
47761;BME280;33524;55.434;38.520;2023-05-20T07:56:45;101148.94;;;19.07;49.58
47761;BME280;33524;55.434;38.520;2023-05-20T07:59:13;101156.50;;;18.08;43.63
47761;BME280;33524;55.434;38.520;2023-05-20T08:01:42;101162.25;;;15.67;47.00
47761;BME280;33524;55.434;38.520;2023-05-20T08:04:10;101160.72;;;15.53;47.67
47761;BME280;33524;55.434;38.520;2023-05-20T08:06:39;101169.66;;;15.41;49.19
47761;BME280;33524;55.434;38.520;2023-05-20T08:09:09;101157.94;;;18.59;41.75
47761;BME280;33524;55.434;38.520;2023-05-20T08:11:37;101160.84;;;18.85;42.34
47761;BME280;33524;55.434;38.520;2023-05-20T08:14:05;101160.97;;;19.39;45.10
47761;BME280;33524;55.434;38.520;2023-05-20T08:16:35;101153.81;;;18.27;41.63
47761;BME280;33524;55.434;38.520;2023-05-20T08:19:04;101156.72;;;16.44;46.60
47761;BME280;33524;55.434;38.520;2023-05-20T08:21:32;101150.09;;;18.48;43.95
47761;BME280;33524;55.434;38.520;2023-05-20T08:24:02;101136.16;;;20.97;44.58
47761;BME280;33524;55.434;38.520;2023-05-20T08:26:31;101132.44;;;23.11;37.76
47761;BME280;33524;55.434;38.520;2023-05-20T08:29:00;101138.03;;;20.70;38.42
47761;BME280;33524;55.434;38.520;2023-05-20T08:31:29;101126.34;;;23.72;37.87
47761;BME280;33524;55.434;38.520;2023-05-20T08:33:58;101132.94;;;23.07;35.98
47761;BME280;33524;55.434;38.520;2023-05-20T08:36:27;101141.78;;;18.23;40.00
47761;BME280;33524;55.434;38.520;2023-05-20T08:38:55;101138.97;;;18.72;42.70
47761;BME280;33524;55.434;38.520;2023-05-20T08:41:24;101132.25;;;16.71;44.99
47761;BME280;33524;55.434;38.520;2023-05-20T08:43:53;101138.41;;;16.72;52.16
47761;BME280;33524;55.434;38.520;2023-05-20T08:46:22;101136.91;;;17.20;42.12
47761;BME280;33524;55.434;38.520;2023-05-20T08:48:51;101121.06;;;19.83;47.06
47761;BME280;33524;55.434;38.520;2023-05-20T08:51:20;101122.63;;;21.90;35.12
47761;BME280;33524;55.434;38.520;2023-05-20T08:53:50;101122.00;;;19.28;39.16
47761;BME280;33524;55.434;38.520;2023-05-20T08:56:19;101135.00;;;19.41;39.32
47761;BME280;33524;55.434;38.520;2023-05-20T08:58:50;101129.88;;;19.02;40.20
47761;BME280;33524;55.434;38.520;2023-05-20T09:01:23;101128.78;;;18.01;42.66
47761;BME280;33524;55.434;38.520;2023-05-20T09:03:52;101129.44;;;17.54;42.21
47761;BME280;33524;55.434;38.520;2023-05-20T09:06:21;101124.16;;;17.93;42.37
47761;BME280;33524;55.434;38.520;2023-05-20T09:08:49;101136.88;;;17.99;42.16
47761;BME280;33524;55.434;38.520;2023-05-20T09:11:19;101139.72;;;18.54;46.28
47761;BME280;33524;55.434;38.520;2023-05-20T09:13:49;101135.31;;;17.77;42.64
47761;BME280;33524;55.434;38.520;2023-05-20T09:16:18;101137.84;;;17.69;45.16
47761;BME280;33524;55.434;38.520;2023-05-20T09:18:46;101154.47;;;16.91;42.69
47761;BME280;33524;55.434;38.520;2023-05-20T09:21:15;101130.00;;;21.80;40.48
47761;BME280;33524;55.434;38.520;2023-05-20T09:23:47;101126.13;;;18.48;40.01
47761;BME280;33524;55.434;38.520;2023-05-20T09:26:17;101125.88;;;20.50;44.17
47761;BME280;33524;55.434;38.520;2023-05-20T09:28:45;101127.69;;;20.67;43.16
47761;BME280;33524;55.434;38.520;2023-05-20T09:31:13;101138.41;;;19.06;40.52
47761;BME280;33524;55.434;38.520;2023-05-20T09:33:42;101137.84;;;18.08;42.12
47761;BME280;33524;55.434;38.520;2023-05-20T09:36:14;101144.00;;;18.28;40.97
47761;BME280;33524;55.434;38.520;2023-05-20T09:38:44;101145.72;;;21.59;41.78
47761;BME280;33524;55.434;38.520;2023-05-20T09:41:14;101135.69;;;21.69;40.96
47761;BME280;33524;55.434;38.520;2023-05-20T09:43:42;101138.84;;;22.13;36.72
47761;BME280;33524;55.434;38.520;2023-05-20T09:46:12;101140.72;;;22.13;34.10
47761;BME280;33524;55.434;38.520;2023-05-20T09:48:41;101138.44;;;20.31;43.83
47761;BME280;33524;55.434;38.520;2023-05-20T09:51:10;101153.25;;;20.00;42.19
47761;BME280;33524;55.434;38.520;2023-05-20T09:53:40;101151.97;;;17.60;42.00
47761;BME280;33524;55.434;38.520;2023-05-20T09:56:09;101159.25;;;17.07;43.09
47761;BME280;33524;55.434;38.520;2023-05-20T09:58:39;101162.25;;;19.07;41.03
47761;BME280;33524;55.434;38.520;2023-05-20T10:01:09;101161.91;;;19.20;39.33
47761;BME280;33524;55.434;38.520;2023-05-20T10:03:38;101162.78;;;17.18;43.93
47761;BME280;33524;55.434;38.520;2023-05-20T10:11:55;101153.78;;;15.84;47.07
47761;BME280;33524;55.434;38.520;2023-05-20T10:19:37;101168.78;;;17.60;43.33
47761;BME280;33524;55.434;38.520;2023-05-20T10:22:09;101175.06;;;17.49;43.43
47761;BME280;33524;55.434;38.520;2023-05-20T10:24:43;101171.78;;;16.86;44.68
47761;BME280;33524;55.434;38.520;2023-05-20T10:27:12;101158.19;;;20.12;44.32
47761;BME280;33524;55.434;38.520;2023-05-20T10:29:48;101160.88;;;19.31;40.62
47761;BME280;33524;55.434;38.520;2023-05-20T10:32:25;101166.03;;;19.32;45.54
47761;BME280;33524;55.434;38.520;2023-05-20T10:37:41;101175.31;;;16.44;46.06
47761;BME280;33524;55.434;38.520;2023-05-20T10:40:12;101175.34;;;16.75;46.44
47761;BME280;33524;55.434;38.520;2023-05-20T10:42:41;101164.78;;;17.25;44.98
47761;BME280;33524;55.434;38.520;2023-05-20T10:45:10;101173.72;;;16.84;46.13
47761;BME280;33524;55.434;38.520;2023-05-20T10:47:54;101175.53;;;16.41;46.91
47761;BME280;33524;55.434;38.520;2023-05-20T10:50:36;101163.69;;;16.45;46.95
47761;BME280;33524;55.434;38.520;2023-05-20T10:53:06;101178.75;;;16.35;46.49
47761;BME280;33524;55.434;38.520;2023-05-20T10:55:56;101179.25;;;15.76;48.81
47761;BME280;33524;55.434;38.520;2023-05-20T10:58:24;101188.84;;;15.10;50.25
47761;BME280;33524;55.434;38.520;2023-05-20T11:00:53;101181.25;;;16.37;48.38
47761;BME280;33524;55.434;38.520;2023-05-20T11:03:24;101188.06;;;15.65;48.90
47761;BME280;33524;55.434;38.520;2023-05-20T11:05:52;101179.69;;;16.13;51.54
47761;BME280;33524;55.434;38.520;2023-05-20T11:08:21;101174.16;;;15.06;49.06
47761;BME280;33524;55.434;38.520;2023-05-20T11:10:56;101191.72;;;15.52;48.24
47761;BME280;33524;55.434;38.520;2023-05-20T11:13:25;101195.78;;;15.57;49.44
47761;BME280;33524;55.434;38.520;2023-05-20T11:15:53;101184.28;;;17.45;46.74
47761;BME280;33524;55.434;38.520;2023-05-20T11:18:29;101196.34;;;15.05;48.72
47761;BME280;33524;55.434;38.520;2023-05-20T11:20:59;101191.97;;;14.82;51.04
47761;BME280;33524;55.434;38.520;2023-05-20T11:23:29;101196.66;;;16.22;47.85
47761;BME280;33524;55.434;38.520;2023-05-20T11:25:57;101189.44;;;15.25;51.39
47761;BME280;33524;55.434;38.520;2023-05-20T11:28:25;101190.78;;;15.08;50.23
47761;BME280;33524;55.434;38.520;2023-05-20T11:30:54;101184.59;;;15.53;48.84
47761;BME280;33524;55.434;38.520;2023-05-20T11:33:25;101194.88;;;15.01;50.02
47761;BME280;33524;55.434;38.520;2023-05-20T11:35:55;101194.38;;;14.96;48.57
47761;BME280;33524;55.434;38.520;2023-05-20T11:38:24;101182.59;;;14.66;49.46
47761;BME280;33524;55.434;38.520;2023-05-20T11:40:54;101193.41;;;14.86;49.17
47761;BME280;33524;55.434;38.520;2023-05-20T11:43:23;101191.97;;;14.70;49.81
47761;BME280;33524;55.434;38.520;2023-05-20T11:45:56;101183.78;;;14.96;48.91
47761;BME280;33524;55.434;38.520;2023-05-20T11:48:27;101186.44;;;14.85;49.29
47761;BME280;33524;55.434;38.520;2023-05-20T11:50:55;101189.72;;;14.88;49.32
47761;BME280;33524;55.434;38.520;2023-05-20T11:53:27;101191.97;;;15.27;48.83
47761;BME280;33524;55.434;38.520;2023-05-20T11:55:58;101192.38;;;14.88;48.29
47761;BME280;33524;55.434;38.520;2023-05-20T11:58:33;101189.34;;;14.93;48.43
47761;BME280;33524;55.434;38.520;2023-05-20T12:01:02;101183.13;;;16.88;45.51
47761;BME280;33524;55.434;38.520;2023-05-20T12:03:48;101195.44;;;15.93;46.19
47761;BME280;33524;55.434;38.520;2023-05-20T12:06:18;101182.16;;;16.89;43.91
47761;BME280;33524;55.434;38.520;2023-05-20T12:08:46;101193.03;;;15.47;43.72
47761;BME280;33524;55.434;38.520;2023-05-20T12:11:14;101192.19;;;15.46;44.51
47761;BME280;33524;55.434;38.520;2023-05-20T12:13:43;101189.31;;;15.27;44.31
47761;BME280;33524;55.434;38.520;2023-05-20T12:16:11;101191.28;;;15.13;43.54
47761;BME280;33524;55.434;38.520;2023-05-20T12:18:39;101193.91;;;15.02;43.34
47761;BME280;33524;55.434;38.520;2023-05-20T12:21:13;101201.00;;;15.36;42.12
47761;BME280;33524;55.434;38.520;2023-05-20T12:23:42;101197.59;;;16.00;41.19
47761;BME280;33524;55.434;38.520;2023-05-20T12:26:28;101191.22;;;15.47;41.46
47761;BME280;33524;55.434;38.520;2023-05-20T12:28:57;101197.28;;;15.16;40.68
47761;BME280;33524;55.434;38.520;2023-05-20T12:31:25;101196.28;;;15.39;44.76
47761;BME280;33524;55.434;38.520;2023-05-20T12:33:53;101185.34;;;16.20;39.78
47761;BME280;33524;55.434;38.520;2023-05-20T12:36:22;101193.63;;;15.73;40.59
47761;BME280;33524;55.434;38.520;2023-05-20T12:38:49;101190.66;;;15.87;40.66
47761;BME280;33524;55.434;38.520;2023-05-20T12:41:17;101190.16;;;15.39;40.84
47761;BME280;33524;55.434;38.520;2023-05-20T12:43:46;101191.00;;;15.39;41.55
47761;BME280;33524;55.434;38.520;2023-05-20T12:46:14;101187.78;;;15.68;41.07
47761;BME280;33524;55.434;38.520;2023-05-20T12:48:42;101182.53;;;16.63;42.38
47761;BME280;33524;55.434;38.520;2023-05-20T12:51:10;101190.34;;;16.02;40.74
47761;BME280;33524;55.434;38.520;2023-05-20T12:53:38;101181.00;;;16.40;43.84
47761;BME280;33524;55.434;38.520;2023-05-20T12:56:06;101185.69;;;16.99;40.07
47761;BME280;33524;55.434;38.520;2023-05-20T12:58:35;101180.22;;;17.41;42.26
47761;BME280;33524;55.434;38.520;2023-05-20T13:01:03;101181.41;;;16.56;40.73
47761;BME280;33524;55.434;38.520;2023-05-20T13:03:43;101180.47;;;17.88;38.62
47761;BME280;33524;55.434;38.520;2023-05-20T13:06:12;101180.84;;;17.74;38.83
47761;BME280;33524;55.434;38.520;2023-05-20T13:08:40;101183.06;;;17.69;40.46